Time;durP1;ratioP1;P1;durP2;ratioP2;P2;SDS_P1;SDS_P2;PMS_P1;PMS_P2;Temp;Humidity;BMP_temperature;BMP_pressure;BME280_temperature;BME280_humidity;BME280_pressure;Samples;Min_cycle;Max_cycle;Signal;HPM_P1;HPM_P2
2021/09/16 00:01:14;;;;;;;3.85;3.00;;;17.50;99.90;;;;;;5029542;28;20206;-75
2021/09/16 00:03:41;;;;;;;3.22;2.92;;;17.50;99.90;;;;;;5027290;28;20205;-74
2021/09/16 00:06:08;;;;;;;3.40;3.20;;;17.50;99.90;;;;;;5026320;28;20201;-74
2021/09/16 00:08:36;;;;;;;3.50;3.30;;;17.40;99.90;;;;;;5025496;28;20210;-74
2021/09/16 00:11:03;;;;;;;2.85;2.75;;;17.40;99.90;;;;;;5025897;28;20206;-74
2021/09/16 00:13:30;;;;;;;3.33;3.13;;;17.40;99.90;;;;;;5023842;28;20325;-75
2021/09/16 00:15:58;;;;;;;2.90;2.75;;;17.40;99.90;;;;;;5026286;28;20572;-75
2021/09/16 00:18:25;;;;;;;2.80;2.60;;;17.30;99.90;;;;;;5023829;28;20211;-75
2021/09/16 00:20:52;;;;;;;3.50;2.88;;;17.30;99.90;;;;;;5025557;28;20535;-75
2021/09/16 00:25:51;;;;;;;2.97;2.80;;;17.50;99.90;;;;;;5030008;22;20258;-74
2021/09/16 00:28:18;;;;;;;3.60;3.30;;;17.50;99.90;;;;;;5023902;28;20968;-74
2021/09/16 00:30:45;;;;;;;3.05;2.85;;;17.50;99.90;;;;;;5023860;28;20246;-75
2021/09/16 00:33:12;;;;;;;2.95;2.75;;;17.60;99.90;;;;;;5026173;28;20894;-75
2021/09/16 00:35:39;;;;;;;2.92;2.72;;;17.50;99.90;;;;;;5026056;28;20300;-75
2021/09/16 00:38:06;;;;;;;3.35;3.05;;;17.50;99.90;;;;;;5024335;28;20213;-75
2021/09/16 00:40:33;;;;;;;3.20;2.85;;;17.40;99.90;;;;;;5026179;28;20641;-75
2021/09/16 00:43:01;;;;;;;4.20;2.95;;;17.50;99.90;;;;;;5018420;28;20206;-75
2021/09/16 00:45:29;;;;;;;3.17;2.88;;;17.40;99.90;;;;;;5026997;23;20270;-75
2021/09/16 00:47:56;;;;;;;3.33;3.10;;;17.50;99.90;;;;;;5023474;28;20210;-76
2021/09/16 00:50:26;;;;;;;2.60;2.40;;;17.50;99.90;;;;;;5023371;28;20285;-76
2021/09/16 00:52:57;;;;;;;2.63;2.40;;;17.40;99.90;;;;;;5024134;28;20237;-75
2021/09/16 00:55:30;;;;;;;2.65;2.55;;;17.40;99.90;;;;;;5025285;28;20195;-76
2021/09/16 00:58:06;;;;;;;3.05;2.85;;;17.30;99.90;;;;;;5019120;28;20203;-76
2021/09/16 01:00:35;;;;;;;2.50;2.40;;;17.30;99.90;;;;;;5035243;23;20298;-75
2021/09/16 01:03:05;;;;;;;2.55;2.45;;;17.40;99.90;;;;;;5042529;22;20285;-76
2021/09/16 01:05:35;;;;;;;2.85;2.65;;;17.30;99.90;;;;;;5025435;28;20294;-76
2021/09/16 01:08:02;;;;;;;2.92;2.72;;;17.20;99.90;;;;;;5024595;28;20224;-76
2021/09/16 01:10:36;;;;;;;3.17;2.97;;;17.20;99.90;;;;;;5024797;28;20652;-76
2021/09/16 01:13:02;;;;;;;3.60;3.30;;;17.40;99.90;;;;;;5024896;28;20688;-76
2021/09/16 01:15:35;;;;;;;3.20;3.00;;;17.50;99.90;;;;;;5025326;28;20210;-76
2021/09/16 01:18:02;;;;;;;3.13;2.92;;;17.60;99.90;;;;;;5023611;28;20262;-76
2021/09/16 01:20:28;;;;;;;3.03;2.83;;;17.60;99.90;;;;;;5031741;23;20662;-75
2021/09/16 01:23:02;;;;;;;3.10;2.85;;;17.60;99.90;;;;;;5030573;23;20609;-76
2021/09/16 01:25:34;;;;;;;3.00;2.75;;;17.70;99.90;;;;;;5024953;28;20562;-76
2021/09/16 01:28:05;;;;;;;2.80;2.20;;;17.60;99.90;;;;;;5023856;28;20206;-75
2021/09/16 01:30:50;;;;;;;2.90;2.70;;;17.50;99.90;;;;;;5022230;28;20289;-76
2021/09/16 01:33:21;;;;;;;3.15;2.63;;;17.40;99.90;;;;;;5019940;28;20234;-75
2021/09/16 01:35:48;;;;;;;3.22;3.03;;;17.30;99.90;;;;;;5024072;28;20202;-75
2021/09/16 01:38:25;;;;;;;3.30;3.00;;;17.30;99.90;;;;;;5023540;28;20242;-75
2021/09/16 01:41:00;;;;;;;3.80;3.50;;;17.30;99.90;;;;;;5019216;28;20202;-75
2021/09/16 01:43:27;;;;;;;3.15;2.85;;;17.20;99.90;;;;;;5028678;28;20620;-75
2021/09/16 01:45:55;;;;;;;3.25;2.95;;;17.10;99.90;;;;;;5029240;28;20202;-76
2021/09/16 01:48:24;;;;;;;3.42;3.13;;;17.30;99.90;;;;;;5028293;28;20241;-76
2021/09/16 01:51:04;;;;;;;4.18;2.85;;;17.40;99.90;;;;;;5027408;28;20730;-76
2021/09/16 01:53:44;;;;;;;3.67;3.38;;;17.40;99.90;;;;;;5023038;28;20324;-76
2021/09/16 01:56:11;;;;;;;3.90;3.03;;;17.50;99.90;;;;;;5027900;28;20309;-76
2021/09/16 01:58:38;;;;;;;5.35;2.85;;;17.40;99.90;;;;;;5026123;28;20294;-76
2021/09/16 02:01:05;;;;;;;2.90;2.70;;;17.30;99.90;;;;;;5028844;28;20202;-75
2021/09/16 02:03:32;;;;;;;3.78;3.33;;;17.30;99.90;;;;;;5027629;28;20199;-76
2021/09/16 02:05:59;;;;;;;3.47;3.28;;;17.20;99.90;;;;;;5028650;28;20206;-75
2021/09/16 02:08:26;;;;;;;3.35;3.15;;;17.20;99.90;;;;;;5027447;28;20194;-74
2021/09/16 02:10:57;;;;;;;4.93;3.25;;;17.10;99.90;;;;;;5027929;28;20289;-76
2021/09/16 02:13:42;;;;;;;3.30;3.00;;;17.10;99.90;;;;;;5024957;28;20234;-76
2021/09/16 02:16:15;;;;;;;3.45;3.15;;;17.00;99.90;;;;;;5023450;28;20310;-80
2021/09/16 02:18:42;;;;;;;2.95;2.75;;;17.00;99.90;;;;;;5022311;28;20302;-77
2021/09/16 02:21:12;;;;;;;3.05;2.85;;;17.00;99.90;;;;;;5027821;28;20336;-77
2021/09/16 02:23:39;;;;;;;4.05;3.70;;;17.10;99.90;;;;;;5027815;28;20786;-77
2021/09/16 02:26:11;;;;;;;4.32;3.45;;;17.00;99.90;;;;;;5026811;28;20206;-79
2021/09/16 02:28:38;;;;;;;4.40;4.00;;;16.90;99.90;;;;;;5025142;28;20289;-80
2021/09/16 02:31:05;;;;;;;4.07;3.78;;;16.80;99.90;;;;;;5027006;28;20294;-78
2021/09/16 02:33:38;;;;;;;5.25;4.85;;;16.70;99.90;;;;;;5025366;28;20227;-77
2021/09/16 02:36:08;;;;;;;4.55;4.20;;;16.60;99.90;;;;;;5027567;28;20230;-79
2021/09/16 02:38:39;;;;;;;5.30;4.80;;;16.60;99.90;;;;;;5027071;28;20202;-80
2021/09/16 02:41:08;;;;;;;5.07;4.57;;;16.60;99.90;;;;;;5027618;28;20207;-79
2021/09/16 02:43:36;;;;;;;5.03;4.53;;;16.60;99.90;;;;;;5027347;28;20202;-77
2021/09/16 02:46:26;;;;;;;5.75;5.15;;;16.60;99.90;;;;;;5027324;28;20198;-78
2021/09/16 02:48:53;;;;;;;6.05;5.60;;;16.60;99.90;;;;;;5019631;28;20210;-82
2021/09/16 02:51:19;;;;;;;6.25;5.20;;;16.50;99.90;;;;;;5026842;28;20310;-80
2021/09/16 02:53:46;;;;;;;5.20;4.80;;;16.50;99.90;;;;;;5027401;28;20230;-81
2021/09/16 02:56:22;;;;;;;9.07;5.40;;;16.60;99.90;;;;;;5026528;28;20202;-80
2021/09/16 02:58:49;;;;;;;6.25;5.65;;;16.60;99.90;;;;;;5023591;28;20202;-78
2021/09/16 03:01:18;;;;;;;5.75;5.25;;;16.60;99.90;;;;;;5027304;28;20213;-77
2021/09/16 03:03:52;;;;;;;5.82;5.20;;;16.70;99.90;;;;;;5026864;28;20293;-80
2021/09/16 03:06:25;;;;;;;6.40;5.80;;;16.60;99.90;;;;;;5027467;28;20313;-78
2021/09/16 03:08:55;;;;;;;5.45;4.95;;;16.70;99.90;;;;;;5025543;28;20203;-80
2021/09/16 03:11:31;;;;;;;6.10;5.60;;;16.60;99.90;;;;;;5026726;28;20736;-79
2021/09/16 03:13:58;;;;;;;4.85;4.35;;;16.60;99.90;;;;;;5019632;28;20226;-81
2021/09/16 03:16:31;;;;;;;5.10;4.70;;;16.60;99.90;;;;;;5021928;28;20214;-78
2021/09/16 03:19:01;;;;;;;4.88;4.40;;;16.60;99.90;;;;;;5024064;28;20284;-81
2021/09/16 03:21:34;;;;;;;5.60;5.10;;;16.60;99.90;;;;;;5026255;28;20836;-79
2021/09/16 03:24:01;;;;;;;5.38;4.93;;;16.70;99.90;;;;;;5026035;28;20337;-81
2021/09/16 03:26:33;;;;;;;5.03;4.63;;;16.70;99.90;;;;;;5024329;28;20202;-80
2021/09/16 03:29:02;;;;;;;5.07;4.70;;;16.70;99.90;;;;;;5021303;28;20207;-78
2021/09/16 03:31:29;;;;;;;5.28;4.88;;;16.80;99.90;;;;;;5025716;28;20236;-79
2021/09/16 03:33:57;;;;;;;5.88;5.35;;;16.70;99.90;;;;;;5026275;28;20228;-79
2021/09/16 03:36:40;;;;;;;5.00;4.70;;;16.70;99.90;;;;;;5025877;28;20689;-80
2021/09/16 03:39:13;;;;;;;4.57;4.18;;;16.80;99.90;;;;;;5021186;28;20256;-80
2021/09/16 03:41:43;;;;;;;6.25;5.57;;;16.70;99.90;;;;;;5029534;28;20210;-77
2021/09/16 03:44:20;;;;;;;6.03;5.63;;;16.70;99.90;;;;;;5024943;28;20612;-78
2021/09/16 03:46:53;;;;;;;6.75;5.57;;;16.80;99.90;;;;;;5024493;28;20229;-78
2021/09/16 03:49:50;;;;;;;5.70;5.25;;;16.80;99.90;;;;;;5026094;28;20216;-78
2021/09/16 03:52:17;;;;;;;6.80;6.20;;;16.80;99.90;;;;;;5024580;28;20217;-79
2021/09/16 03:54:44;;;;;;;7.30;6.80;;;16.80;99.90;;;;;;5024963;28;20292;-79
2021/09/16 03:57:24;;;;;;;7.50;6.85;;;16.80;99.90;;;;;;5025885;28;21002;-80
2021/09/16 04:00:07;;;;;;;7.10;6.50;;;16.80;99.90;;;;;;5026333;28;20202;-79
2021/09/16 04:02:47;;;;;;;6.40;5.90;;;16.80;99.90;;;;;;5024126;28;20209;-81
2021/09/16 04:05:22;;;;;;;6.35;5.95;;;16.90;99.90;;;;;;5021929;28;20202;-79
2021/09/16 04:07:52;;;;;;;5.63;5.18;;;16.90;99.90;;;;;;5025117;28;20310;-83
2021/09/16 04:10:25;;;;;;;5.80;5.32;;;16.90;99.90;;;;;;5025563;28;20199;-78
2021/09/16 04:13:00;;;;;;;5.45;5.05;;;16.80;99.90;;;;;;5020979;28;20202;-82
2021/09/16 04:15:43;;;;;;;6.05;5.53;;;16.80;99.90;;;;;;5025284;28;20213;-77
2021/09/16 04:18:18;;;;;;;5.88;5.30;;;16.70;99.90;;;;;;5022690;28;20198;-80
2021/09/16 04:20:45;;;;;;;6.15;5.65;;;16.70;99.90;;;;;;5023900;28;20205;-84
2021/09/16 04:23:20;;;;;;;6.00;5.50;;;16.70;99.90;;;;;;5026075;28;20779;-83
2021/09/16 04:25:50;;;;;;;6.00;5.47;;;16.70;99.90;;;;;;5023668;28;20277;-82
2021/09/16 04:28:18;;;;;;;7.13;6.47;;;16.60;99.90;;;;;;5023368;28;20217;-83
2021/09/16 04:30:45;;;;;;;7.40;6.32;;;16.50;99.90;;;;;;5025873;28;20210;-80
2021/09/16 04:33:12;;;;;;;7.20;6.57;;;16.40;99.90;;;;;;5027321;28;20648;-82
2021/09/16 04:35:41;;;;;;;6.80;6.20;;;16.50;99.90;;;;;;5025215;28;20226;-83
2021/09/16 04:38:18;;;;;;;8.27;6.53;;;16.50;99.90;;;;;;5025969;28;20293;-78
2021/09/16 04:40:48;;;;;;;6.97;6.38;;;16.50;99.90;;;;;;5026118;28;20495;-84
2021/09/16 04:43:19;;;;;;;7.00;6.18;;;16.50;99.90;;;;;;5033523;28;20206;-85
2021/09/16 04:45:46;;;;;;;6.80;6.22;;;16.60;99.90;;;;;;5028046;28;20212;-80
2021/09/16 04:48:16;;;;;;;7.53;6.70;;;16.60;99.90;;;;;;5026691;28;20202;-82
2021/09/16 04:50:43;;;;;;;7.13;6.55;;;16.60;99.90;;;;;;5025487;28;20230;-82
2021/09/16 04:53:15;;;;;;;7.70;7.00;;;16.60;99.90;;;;;;5034919;28;20886;-83
2021/09/16 04:55:44;;;;;;;8.32;7.63;;;16.50;99.90;;;;;;5025925;28;20256;-78
2021/09/16 04:58:13;;;;;;;7.22;6.63;;;16.50;99.90;;;;;;5024948;28;20244;-80
2021/09/16 05:00:46;;;;;;;8.35;7.65;;;16.50;99.90;;;;;;5026810;28;21069;-80
2021/09/16 05:03:17;;;;;;;8.45;7.30;;;16.40;99.90;;;;;;5025441;28;20194;-80
2021/09/16 05:05:47;;;;;;;7.35;6.70;;;16.50;99.90;;;;;;5025227;28;20206;-81
2021/09/16 05:10:43;;;;;;;7.88;7.13;;;16.50;99.90;;;;;;5029955;28;20275;-79
2021/09/16 05:13:09;;;;;;;8.07;7.38;;;16.50;99.90;;;;;;5030549;28;20211;-82
2021/09/16 05:15:36;;;;;;;9.30;7.97;;;16.50;99.90;;;;;;5027230;28;20448;-82
2021/09/16 05:18:04;;;;;;;9.43;7.03;;;16.40;99.90;;;;;;5028599;28;20221;-81
2021/09/16 05:20:36;;;;;;;7.55;6.88;;;16.40;99.90;;;;;;5029601;28;20752;-82
2021/09/16 05:23:06;;;;;;;8.95;7.80;;;16.40;99.90;;;;;;5029167;28;20198;-78
2021/09/16 05:28:13;;;;;;;7.25;6.65;;;16.50;99.90;;;;;;4687698;22;20212;-77
2021/09/16 05:30:40;;;;;;;7.63;6.78;;;16.50;99.90;;;;;;5009849;28;20558;-78
2021/09/16 05:33:11;;;;;;;7.40;6.70;;;16.50;99.90;;;;;;5008449;28;20906;-80
2021/09/16 05:38:25;;;;;;;7.90;7.10;;;16.50;99.90;;;;;;5005945;28;20221;-79
2021/09/16 05:46:57;;;;;;;8.57;7.20;;;16.50;99.90;;;;;;4958705;22;20217;-74
2021/09/16 05:59:03;;;;;;;9.00;7.03;;;16.50;99.90;;;;;;5026739;28;20245;-75
2021/09/16 06:26:23;;;;;;;8.15;7.45;;;16.50;99.90;;;;;;1178642;23;20192;-74
2021/09/16 07:29:30;;;;;;;;;;;;;;;;;;;;;
2021/09/16 07:31:59;;;;;;;7.30;6.70;;;18.10;99.90;;;;;;4962471;28;20616;-74
2021/09/16 07:40:31;;;;;;;6.63;6.13;;;18.40;99.90;;;;;;4951370;28;20624;-74
2021/09/16 07:46:19;;;;;;;5.27;4.87;;;18.70;99.90;;;;;;4959127;28;20596;-75
2021/09/16 07:59:04;;;;;;;7.60;5.50;;;18.20;99.90;;;;;;4886690;29;20643;-75
2021/09/16 08:01:41;;;;;;;6.60;6.00;;;18.20;99.90;;;;;;4908073;29;20648;-76
2021/09/16 08:04:10;;;;;;;5.93;5.10;;;18.20;99.90;;;;;;5017499;28;20625;-74
2021/09/16 08:06:38;;;;;;;7.60;7.00;;;18.10;99.90;;;;;;5026488;28;20727;-75
2021/09/16 08:09:05;;;;;;;6.53;5.93;;;18.10;99.90;;;;;;5022259;28;20634;-75
2021/09/16 08:29:07;;;;;;;8.37;7.57;;;18.00;99.90;;;;;;5026490;28;20580;-75
2021/09/16 08:38:45;;;;;;;9.83;8.20;;;17.70;99.90;;;;;;5023342;28;20605;-74
2021/09/16 08:41:24;;;;;;;9.00;8.20;;;17.80;99.90;;;;;;5023056;28;20684;-74
2021/09/16 08:44:34;;;;;;;10.23;9.33;;;17.80;99.90;;;;;;5026831;28;21059;-74
2021/09/16 09:10:45;;;;;;;3.33;3.13;;;17.80;99.90;;;;;;4966943;28;21035;-74
2021/09/16 09:20:10;;;;;;;4.17;3.87;;;17.70;99.90;;;;;;5023091;28;20643;-74
2021/09/16 09:49:38;;;;;;;9.25;8.45;;;17.20;99.90;;;;;;4907198;29;20595;-74
2021/09/16 09:59:07;;;;;;;11.70;10.60;;;16.90;99.90;;;;;;4963325;28;20211;-73
2021/09/16 10:09:05;;;;;;;12.13;10.90;;;17.20;99.90;;;;;;5027869;28;20218;-73
2021/09/16 11:13:02;;;;;;;11.50;10.35;;;16.80;99.90;;;;;;5140922;22;20377;-76
2021/09/16 11:15:46;;;;;;;13.68;11.32;;;16.80;99.90;;;;;;5004109;28;20234;-73
2021/09/16 11:18:19;;;;;;;13.50;11.70;;;16.80;99.90;;;;;;5006958;28;20283;-74
2021/09/16 11:20:48;;;;;;;14.88;13.27;;;16.80;99.90;;;;;;5006704;28;20239;-75
2021/09/16 11:23:17;;;;;;;14.52;13.05;;;16.80;99.90;;;;;;5007035;28;20214;-74
2021/09/16 11:25:46;;;;;;;15.60;14.00;;;16.70;99.90;;;;;;5005021;28;20265;-74
2021/09/16 11:28:17;;;;;;;19.45;15.65;;;16.60;99.90;;;;;;5006588;28;20301;-74
2021/09/16 11:30:47;;;;;;;17.50;15.70;;;16.70;99.90;;;;;;5008296;28;21766;-74
2021/09/16 11:33:16;;;;;;;17.52;15.35;;;16.70;99.90;;;;;;5008603;28;20211;-74
2021/09/16 11:35:43;;;;;;;19.10;15.32;;;16.70;99.90;;;;;;5007986;28;20234;-74
2021/09/16 11:38:11;;;;;;;16.90;15.10;;;16.70;99.90;;;;;;5007020;28;20290;-75
2021/09/16 11:40:40;;;;;;;17.25;15.55;;;16.70;99.90;;;;;;4997550;28;20207;-78
2021/09/16 11:43:08;;;;;;;16.02;14.40;;;16.60;99.90;;;;;;5008231;28;20239;-75
2021/09/16 11:45:39;;;;;;;15.90;14.10;;;16.60;99.90;;;;;;5007320;28;20233;-75
2021/09/16 11:48:08;;;;;;;15.90;13.77;;;16.60;99.90;;;;;;5007023;28;20231;-74
2021/09/16 11:50:37;;;;;;;15.63;13.80;;;16.60;99.90;;;;;;5005802;28;20305;-75
2021/09/16 11:53:06;;;;;;;14.43;12.38;;;16.70;99.90;;;;;;5000364;28;20286;-74
2021/09/16 11:55:40;;;;;;;16.23;13.73;;;16.70;99.90;;;;;;5002477;28;20238;-74
2021/09/16 11:58:10;;;;;;;15.57;13.43;;;16.90;99.90;;;;;;5003669;28;20648;-75
2021/09/16 12:00:41;;;;;;;15.38;13.07;;;16.80;99.90;;;;;;5005137;28;20302;-75
2021/09/16 12:03:13;;;;;;;14.88;13.00;;;16.90;99.90;;;;;;5006694;28;20668;-75
2021/09/16 12:05:49;;;;;;;15.50;13.63;;;16.90;99.90;;;;;;5005678;28;20266;-75
2021/09/16 12:08:24;;;;;;;14.83;13.23;;;17.00;99.90;;;;;;5009143;28;20649;-75
2021/09/16 12:10:55;;;;;;;16.52;13.52;;;17.00;99.90;;;;;;4997716;28;21254;-75
2021/09/16 12:13:24;;;;;;;14.33;12.83;;;17.00;99.90;;;;;;5006856;28;20219;-74
2021/09/16 12:16:05;;;;;;;15.75;12.98;;;17.00;99.90;;;;;;5000563;28;21096;-74
2021/09/16 12:18:37;;;;;;;13.70;12.30;;;17.20;99.90;;;;;;5004544;28;20207;-74
2021/09/16 12:21:05;;;;;;;15.30;13.70;;;17.30;99.90;;;;;;5007288;28;20660;-74
2021/09/16 12:23:32;;;;;;;14.20;12.80;;;17.50;99.90;;;;;;5008259;28;21564;-74
2021/09/16 12:26:02;;;;;;;18.80;12.53;;;17.90;99.90;;;;;;5004976;28;20665;-73
2021/09/16 12:28:31;;;;;;;13.13;11.83;;;18.20;99.90;;;;;;5007364;28;20721;-76
2021/09/16 12:31:07;;;;;;;13.00;11.70;;;18.40;99.90;;;;;;5006487;28;21261;-75
2021/09/16 12:33:41;;;;;;;13.30;11.90;;;18.70;99.90;;;;;;5007219;28;20638;-76
2021/09/16 12:36:14;;;;;;;12.10;10.90;;;18.70;99.90;;;;;;5007770;28;20689;-75
2021/09/16 12:38:43;;;;;;;15.40;13.40;;;18.40;99.90;;;;;;5010955;28;20985;-74
2021/09/16 12:41:31;;;;;;;14.90;13.40;;;18.30;99.90;;;;;;5003749;28;20773;-76
2021/09/16 12:44:02;;;;;;;14.40;12.93;;;18.00;99.90;;;;;;4992401;28;20661;-76
2021/09/16 12:46:46;;;;;;;16.63;12.97;;;18.00;99.90;;;;;;5001595;28;21003;-73
2021/09/16 12:49:28;;;;;;;14.17;12.67;;;17.80;99.90;;;;;;5003909;28;21384;-74
2021/09/16 12:51:59;;;;;;;15.43;13.90;;;17.60;99.90;;;;;;5001243;28;20636;-72
2021/09/16 12:54:27;;;;;;;17.27;14.57;;;17.60;99.90;;;;;;5005370;28;20635;-72
2021/09/16 12:56:55;;;;;;;17.70;15.03;;;17.70;99.90;;;;;;5004346;28;21360;-73
2021/09/16 12:59:24;;;;;;;19.83;16.47;;;17.70;99.90;;;;;;5003039;28;20637;-74
2021/09/16 13:05:09;;;;;;;21.60;18.60;;;17.70;99.90;;;;;;5135999;27;21101;-74
2021/09/16 13:07:38;;;;;;;21.03;16.97;;;17.50;99.90;;;;;;5121160;28;20627;-75
2021/09/16 13:10:24;;;;;;;22.93;19.40;;;17.40;99.90;;;;;;5119262;28;20661;-75
2021/09/16 13:16:13;;;;;;;22.60;18.60;;;17.50;99.90;;;;;;5114378;28;20646;-75
2021/09/16 13:18:40;;;;;;;21.13;18.80;;;17.50;99.90;;;;;;5123034;28;20629;-74
2021/09/16 13:21:08;;;;;;;22.53;18.43;;;17.60;99.90;;;;;;5120491;28;20723;-74
2021/09/16 13:23:35;;;;;;;20.93;18.73;;;17.70;99.90;;;;;;5115836;28;20945;-74
2021/09/16 13:26:02;;;;;;;22.10;19.13;;;17.80;99.90;;;;;;5119446;28;20745;-74
2021/09/16 13:28:28;;;;;;;20.97;18.57;;;17.90;99.90;;;;;;5114245;27;20660;-74
2021/09/16 13:30:57;;;;;;;22.33;19.47;;;18.00;99.90;;;;;;5110769;27;20628;-75
2021/09/16 13:33:24;;;;;;;20.00;17.90;;;18.20;99.90;;;;;;5115691;27;20736;-75
2021/09/16 13:35:51;;;;;;;19.50;17.50;;;18.40;99.90;;;;;;5118184;27;20743;-75
2021/09/16 13:38:20;;;;;;;19.10;16.73;;;18.50;99.90;;;;;;5113797;27;20717;-75
2021/09/16 13:40:53;;;;;;;20.40;16.30;;;18.60;99.90;;;;;;5110063;27;20632;-76
2021/09/16 13:43:19;;;;;;;18.27;16.47;;;18.50;99.90;;;;;;5117254;27;20751;-75
2021/09/16 13:45:46;;;;;;;17.50;15.80;;;18.40;99.90;;;;;;5121397;27;20632;-74
2021/09/16 13:48:16;;;;;;;18.30;16.57;;;18.40;99.90;;;;;;5119688;27;20689;-76
2021/09/16 13:50:56;;;;;;;17.10;15.40;;;18.60;99.90;;;;;;5123646;27;20716;-76
2021/09/16 13:53:28;;;;;;;19.20;17.40;;;18.90;99.90;;;;;;5117409;28;20653;-73
2021/09/16 13:55:55;;;;;;;19.20;17.20;;;19.00;99.90;;;;;;5119663;27;20728;-77
2021/09/16 13:58:22;;;;;;;19.67;17.57;;;19.00;99.90;;;;;;5121047;27;20635;-76
2021/09/16 14:00:50;;;;;;;20.83;18.30;;;19.10;99.90;;;;;;5116443;27;20725;-76
2021/09/16 14:03:17;;;;;;;18.93;17.13;;;19.20;99.90;;;;;;5122077;27;20684;-76
2021/09/16 14:05:47;;;;;;;19.60;17.57;;;19.30;99.90;;;;;;5119138;27;20628;-76
2021/09/16 14:08:14;;;;;;;20.60;18.60;;;19.50;99.90;;;;;;5118963;27;20664;-76
2021/09/16 14:10:42;;;;;;;20.13;18.33;;;19.50;99.90;;;;;;5123703;28;20636;-76
2021/09/16 14:13:09;;;;;;;20.37;18.40;;;19.50;99.90;;;;;;5123037;28;20740;-76
2021/09/16 14:15:36;;;;;;;20.63;18.57;;;19.60;99.90;;;;;;5100751;28;20629;-76
2021/09/16 14:18:03;;;;;;;19.63;17.63;;;19.60;99.90;;;;;;5090054;28;20716;-76
2021/09/16 14:20:30;;;;;;;19.90;17.80;;;19.60;99.90;;;;;;5095603;28;20636;-76
2021/09/16 14:22:57;;;;;;;20.17;18.27;;;19.60;99.90;;;;;;5110268;28;21224;-76
2021/09/16 14:25:24;;;;;;;21.63;18.47;;;19.30;99.90;;;;;;5090334;28;20679;-76
2021/09/16 14:27:52;;;;;;;20.30;18.10;;;19.30;99.90;;;;;;5087542;28;20625;-76
2021/09/16 14:30:19;;;;;;;22.20;20.03;;;19.40;99.90;;;;;;5102530;28;20971;-76
2021/09/16 14:32:46;;;;;;;21.93;19.83;;;19.30;99.90;;;;;;5101668;28;21170;-76
2021/09/16 14:35:13;;;;;;;18.67;16.77;;;19.40;99.90;;;;;;5090198;28;20775;-76
2021/09/16 14:37:39;;;;;;;20.30;17.80;;;19.30;99.90;;;;;;5089136;28;20975;-76
2021/09/16 14:40:08;;;;;;;18.47;16.67;;;19.30;99.90;;;;;;5090046;28;20692;-76
2021/09/16 14:42:38;;;;;;;18.07;16.17;;;19.30;99.90;;;;;;5089136;28;20738;-75
2021/09/16 14:45:08;;;;;;;16.17;14.57;;;19.30;99.90;;;;;;5092927;28;20703;-75
2021/09/16 14:47:34;;;;;;;16.47;14.27;;;19.30;99.90;;;;;;5088203;28;20618;-75
2021/09/16 14:50:01;;;;;;;15.70;14.20;;;19.10;99.90;;;;;;5089486;28;20707;-76
2021/09/16 14:52:28;;;;;;;15.80;14.30;;;19.10;99.90;;;;;;5108618;28;20618;-75
2021/09/16 14:54:55;;;;;;;15.40;13.90;;;19.10;99.90;;;;;;5089608;28;20720;-75
2021/09/16 14:57:22;;;;;;;14.37;13.00;;;19.30;99.90;;;;;;5088641;28;21401;-76
2021/09/16 14:59:49;;;;;;;13.40;12.20;;;19.10;99.90;;;;;;5088497;28;20629;-75
2021/09/16 15:02:17;;;;;;;12.57;11.47;;;19.30;99.90;;;;;;5108338;28;20621;-74
2021/09/16 15:04:44;;;;;;;12.90;11.70;;;19.30;99.90;;;;;;5108888;28;20672;-75
2021/09/16 15:07:11;;;;;;;13.43;12.33;;;19.30;99.90;;;;;;5105674;28;20617;-76
2021/09/16 15:09:37;;;;;;;13.20;12.00;;;19.30;99.90;;;;;;5108801;28;20694;-76
2021/09/16 15:12:05;;;;;;;11.47;10.50;;;19.20;99.90;;;;;;5107266;28;20725;-76
2021/09/16 15:14:32;;;;;;;12.40;11.30;;;19.20;99.90;;;;;;5108511;28;20724;-75
2021/09/16 15:16:59;;;;;;;13.83;12.60;;;19.00;99.90;;;;;;5094193;28;20725;-75
2021/09/16 15:19:27;;;;;;;13.37;12.07;;;18.90;99.90;;;;;;5088310;28;20626;-74
2021/09/16 15:21:54;;;;;;;12.70;11.40;;;18.90;99.90;;;;;;5103000;28;20689;-75
2021/09/16 15:24:21;;;;;;;15.10;12.20;;;18.90;99.90;;;;;;5108003;28;20675;-74
2021/09/16 15:26:47;;;;;;;12.93;11.77;;;18.80;99.90;;;;;;5102174;28;20640;-74
2021/09/16 15:29:15;;;;;;;13.30;11.93;;;18.90;99.90;;;;;;5096803;28;20657;-73
2021/09/16 15:31:44;;;;;;;12.83;11.60;;;19.00;99.90;;;;;;5086825;28;21222;-73
2021/09/16 15:34:11;;;;;;;14.07;12.67;;;19.10;99.90;;;;;;5087996;28;21388;-73
2021/09/16 15:36:39;;;;;;;12.83;11.63;;;19.10;99.90;;;;;;5087451;28;21207;-73
2021/09/16 15:39:06;;;;;;;14.00;11.73;;;18.90;99.90;;;;;;5086887;28;20966;-73
2021/09/16 15:41:33;;;;;;;12.60;11.40;;;18.90;99.90;;;;;;5087381;28;20716;-73
2021/09/16 15:44:00;;;;;;;13.77;12.47;;;19.00;99.90;;;;;;5086864;28;21180;-72
2021/09/16 15:46:27;;;;;;;13.33;12.10;;;18.80;99.90;;;;;;5092962;28;21243;-73
2021/09/16 15:48:54;;;;;;;12.60;11.50;;;18.60;99.90;;;;;;5106492;28;20622;-73
2021/09/16 15:51:21;;;;;;;12.67;11.23;;;18.50;99.90;;;;;;5107832;28;20616;-72
2021/09/16 15:53:49;;;;;;;12.60;11.50;;;18.50;99.90;;;;;;5095932;28;20626;-73
2021/09/16 15:56:16;;;;;;;13.10;11.80;;;18.60;99.90;;;;;;5094463;28;20693;-73
2021/09/16 15:58:43;;;;;;;12.57;11.40;;;18.50;99.90;;;;;;5106139;28;20629;-72
2021/09/16 16:01:11;;;;;;;12.77;11.47;;;18.60;99.90;;;;;;5107099;28;20716;-74
2021/09/16 16:03:38;;;;;;;11.60;10.50;;;18.60;99.90;;;;;;5096534;28;20682;-73
2021/09/16 16:06:06;;;;;;;11.80;10.70;;;18.60;99.90;;;;;;5087684;28;20632;-74
2021/09/16 16:08:33;;;;;;;10.77;9.77;;;18.50;99.90;;;;;;5106377;28;20626;-74
2021/09/16 16:11:03;;;;;;;11.50;10.50;;;18.50;99.90;;;;;;5107574;28;21043;-73
2021/09/16 16:13:30;;;;;;;12.77;11.67;;;18.50;99.90;;;;;;5100952;28;20625;-73
2021/09/16 16:15:57;;;;;;;13.33;12.13;;;18.30;99.90;;;;;;5105376;28;21044;-73
2021/09/16 16:18:24;;;;;;;12.30;11.10;;;18.30;99.90;;;;;;5106564;28;20617;-73
2021/09/16 16:20:51;;;;;;;13.70;12.40;;;18.10;99.90;;;;;;5105909;28;20633;-73
2021/09/16 16:23:18;;;;;;;13.43;12.10;;;18.00;99.90;;;;;;5107154;28;20617;-72
2021/09/16 16:25:45;;;;;;;12.60;11.40;;;17.90;99.90;;;;;;5105873;28;20668;-72
2021/09/16 16:28:19;;;;;;;10.53;9.43;;;17.90;99.90;;;;;;5089760;28;20674;-73
2021/09/16 16:30:45;;;;;;;10.83;9.83;;;17.70;99.90;;;;;;5087805;28;20606;-72
2021/09/16 16:33:13;;;;;;;11.50;9.57;;;17.60;99.90;;;;;;5086411;28;20717;-73
2021/09/16 16:35:52;;;;;;;10.40;9.50;;;17.50;99.90;;;;;;5086881;28;21000;-74
2021/09/16 16:38:25;;;;;;;11.23;10.20;;;17.40;99.90;;;;;;5087568;28;21181;-73
2021/09/16 16:40:52;;;;;;;9.70;8.80;;;17.30;99.90;;;;;;5087262;28;20637;-73
2021/09/16 16:43:21;;;;;;;11.50;9.70;;;17.30;99.90;;;;;;5087630;28;20635;-72
2021/09/16 16:45:48;;;;;;;11.03;9.93;;;17.30;99.90;;;;;;5087190;28;20761;-72
2021/09/16 16:48:15;;;;;;;11.05;10.05;;;17.20;99.90;;;;;;5085734;28;20717;-73
2021/09/16 16:50:42;;;;;;;10.13;9.13;;;17.20;99.90;;;;;;5096797;28;20227;-72
2021/09/16 16:53:09;;;;;;;9.90;9.00;;;17.20;99.90;;;;;;5096638;28;20757;-74
2021/09/16 16:55:36;;;;;;;11.73;10.00;;;17.10;99.90;;;;;;5106743;28;20622;-72
2021/09/16 16:58:03;;;;;;;9.70;8.43;;;17.10;99.90;;;;;;5105793;28;20621;-72
2021/09/16 17:00:32;;;;;;;9.63;8.70;;;17.00;99.90;;;;;;5096967;28;20724;-72
2021/09/16 17:02:59;;;;;;;9.60;8.70;;;17.00;99.90;;;;;;5106708;28;20728;-72
2021/09/16 17:05:26;;;;;;;8.77;8.00;;;17.00;99.90;;;;;;5106902;28;20842;-73
2021/09/16 17:07:54;;;;;;;9.23;8.53;;;16.90;99.90;;;;;;5105741;28;20242;-74
2021/09/16 17:10:22;;;;;;;9.05;8.35;;;16.90;99.90;;;;;;5094768;28;20690;-73
2021/09/16 17:12:49;;;;;;;8.73;7.90;;;16.80;99.90;;;;;;5106442;28;20249;-73
2021/09/16 17:15:16;;;;;;;10.02;9.20;;;16.80;99.90;;;;;;5106258;28;20987;-74
2021/09/16 17:17:44;;;;;;;8.63;7.70;;;16.70;99.90;;;;;;5103397;28;20698;-72
2021/09/16 17:20:12;;;;;;;10.35;8.60;;;16.70;99.90;;;;;;5106111;28;20200;-73
2021/09/16 17:22:39;;;;;;;8.98;8.07;;;16.60;99.90;;;;;;5106349;28;20207;-72
2021/09/16 17:25:07;;;;;;;9.27;8.40;;;16.60;99.90;;;;;;5106777;28;20231;-74
2021/09/16 17:27:34;;;;;;;9.43;8.25;;;16.50;99.90;;;;;;5099422;28;20234;-73
2021/09/16 17:30:01;;;;;;;9.80;8.35;;;16.40;99.90;;;;;;5106842;28;20207;-73
2021/09/16 17:32:28;;;;;;;10.55;7.70;;;16.40;99.90;;;;;;5106341;28;20303;-74
2021/09/16 17:34:57;;;;;;;10.20;8.55;;;16.30;99.90;;;;;;5097959;28;20200;-72
2021/09/16 17:37:24;;;;;;;8.32;7.45;;;16.30;99.90;;;;;;5085388;28;20294;-74
2021/09/16 17:39:50;;;;;;;9.75;8.80;;;16.20;99.90;;;;;;5086606;28;20207;-72
2021/09/16 17:42:17;;;;;;;7.55;6.93;;;16.20;99.90;;;;;;5086496;28;20621;-72
2021/09/16 17:44:45;;;;;;;8.52;7.82;;;16.20;99.90;;;;;;5089252;28;20231;-74
2021/09/16 17:47:12;;;;;;;7.72;7.10;;;16.20;99.90;;;;;;5085449;28;20200;-73